Time;durP1;ratioP1;P1;durP2;ratioP2;P2;SDS_P1;SDS_P2;PMS_P1;PMS_P2;Temp;Humidity;BMP_temperature;BMP_pressure;BME280_temperature;BME280_humidity;BME280_pressure;Samples;Min_cycle;Max_cycle;Signal;HPM_P1;HPM_P2
2022/05/24 00:00:48;;;;;;;12.57;6.90;;;;;;;10.04;100.00;99466.16;5073109;28;20049;-76
2022/05/24 00:03:17;;;;;;;14.23;6.30;;;;;;;10.00;100.00;99465.47;5073004;28;20406;-73
2022/05/24 00:05:45;;;;;;;10.52;5.90;;;;;;;9.93;100.00;99468.59;5072751;28;20123;-76
2022/05/24 00:08:12;;;;;;;11.93;5.72;;;;;;;9.77;100.00;99468.66;5072984;28;20044;-75
2022/05/24 00:10:40;;;;;;;12.85;6.18;;;;;;;9.58;100.00;99467.03;5073105;28;20049;-75
2022/05/24 00:13:10;;;;;;;13.70;6.47;;;;;;;9.54;100.00;99469.03;5072839;28;20061;-76
2022/05/24 00:15:39;;;;;;;12.32;6.47;;;;;;;9.55;100.00;99476.16;5072956;28;20044;-75
2022/05/24 00:18:09;;;;;;;12.98;6.28;;;;;;;9.48;100.00;99466.69;5072975;28;20478;-75
2022/05/24 00:20:39;;;;;;;10.93;5.57;;;;;;;9.27;100.00;99472.38;5062008;28;20072;-75
2022/05/24 00:23:07;;;;;;;13.68;5.78;;;;;;;9.20;100.00;99471.00;5071540;28;20049;-74
2022/05/24 00:25:38;;;;;;;12.60;6.25;;;;;;;9.21;100.00;99467.34;5072776;28;20056;-75
2022/05/24 00:28:08;;;;;;;12.60;6.35;;;;;;;9.20;100.00;99457.53;5072786;28;20046;-76
2022/05/24 00:30:37;;;;;;;12.77;5.75;;;;;;;9.13;100.00;99458.78;5073307;28;20046;-75
2022/05/24 00:33:05;;;;;;;11.50;4.97;;;;;;;9.08;100.00;99461.78;5072698;28;20480;-73
2022/05/24 00:35:33;;;;;;;12.70;5.30;;;;;;;9.23;100.00;99459.16;5071901;28;20055;-76
2022/05/24 00:38:01;;;;;;;11.00;5.90;;;;;;;9.37;100.00;99464.63;5072106;28;20044;-75
2022/05/24 00:40:40;;;;;;;10.73;5.72;;;;;;;9.35;100.00;99461.13;5072816;28;20040;-76
2022/05/24 00:43:13;;;;;;;12.65;6.22;;;;;;;9.26;100.00;99462.56;5073739;28;20040;-76
2022/05/24 00:45:44;;;;;;;11.43;6.60;;;;;;;9.19;100.00;99465.69;5074175;28;20055;-75
2022/05/24 00:48:26;;;;;;;12.52;6.97;;;;;;;9.07;100.00;99469.94;5056625;28;20098;-76
2022/05/24 00:50:54;;;;;;;12.88;6.53;;;;;;;8.92;100.00;99472.53;5053018;28;20408;-74
2022/05/24 00:53:26;;;;;;;16.17;6.97;;;;;;;9.06;100.00;99466.38;5052263;28;20063;-75
2022/05/24 00:55:58;;;;;;;12.20;6.55;;;;;;;8.93;100.00;99458.09;5071710;28;20050;-76
2022/05/24 00:58:38;;;;;;;11.35;6.40;;;;;;;9.07;100.00;99460.03;5073274;28;20044;-74
2022/05/24 01:01:16;;;;;;;12.68;6.55;;;;;;;9.22;100.00;99452.03;5075318;28;20040;-75
2022/05/24 01:03:44;;;;;;;12.52;6.70;;;;;;;9.27;100.00;99448.13;5076397;28;20045;-75
2022/05/24 01:06:12;;;;;;;13.80;6.38;;;;;;;9.25;100.00;99441.97;5075919;28;20066;-76
2022/05/24 01:08:39;;;;;;;14.38;6.60;;;;;;;9.10;100.00;99445.50;5075978;28;20579;-74
2022/05/24 01:11:07;;;;;;;11.05;6.25;;;;;;;8.99;100.00;99446.97;5075953;28;20478;-73
2022/05/24 01:13:38;;;;;;;11.32;6.38;;;;;;;9.22;100.00;99443.94;5075842;28;20058;-76
2022/05/24 01:16:05;;;;;;;12.68;6.47;;;;;;;9.25;100.00;99439.25;5075900;28;20051;-76
2022/05/24 01:18:33;;;;;;;11.93;6.28;;;;;;;9.20;100.00;99440.47;5075158;28;20044;-74
2022/05/24 01:21:03;;;;;;;11.98;6.00;;;;;;;9.20;100.00;99435.09;5075660;28;20044;-74
2022/05/24 01:23:43;;;;;;;11.55;5.60;;;;;;;9.17;100.00;99432.56;5075855;28;20044;-76
2022/05/24 01:26:15;;;;;;;11.85;5.80;;;;;;;9.02;100.00;99431.59;5075562;28;20043;-74
2022/05/24 01:28:49;;;;;;;9.88;5.53;;;;;;;8.98;100.00;99433.63;5076140;28;20504;-76
2022/05/24 01:31:17;;;;;;;13.50;6.47;;;;;;;8.91;100.00;99442.97;5076006;28;20055;-74
2022/05/24 01:36:32;;;;;;;11.75;6.50;;;;;;;8.94;100.00;99430.22;5076116;28;20485;-76
2022/05/24 01:39:03;;;;;;;10.55;6.45;;;;;;;8.95;100.00;99431.97;5076732;28;20072;-75
2022/05/24 01:41:32;;;;;;;12.75;7.03;;;;;;;8.83;100.00;99430.81;5075686;28;20051;-73
2022/05/24 01:44:01;;;;;;;12.20;7.38;;;;;;;8.80;100.00;99436.38;5075300;28;20056;-73
2022/05/24 01:46:33;;;;;;;12.75;7.25;;;;;;;8.77;100.00;99423.06;5075155;28;20045;-75
2022/05/24 01:49:03;;;;;;;13.07;7.20;;;;;;;8.79;100.00;99420.31;5074880;28;20063;-73
2022/05/24 01:51:34;;;;;;;13.70;7.10;;;;;;;8.84;100.00;99420.94;5075551;28;20044;-73
2022/05/24 01:54:04;;;;;;;12.20;6.68;;;;;;;8.81;99.79;99421.09;5074220;28;20501;-76
2022/05/24 01:56:38;;;;;;;11.38;6.75;;;;;;;8.75;100.00;99416.03;5074919;28;20082;-74
2022/05/24 01:59:08;;;;;;;11.90;6.32;;;;;;;8.69;99.68;99417.25;5074905;28;20059;-75
2022/05/24 02:01:42;;;;;;;11.82;6.53;;;;;;;8.68;100.00;99421.75;5074501;28;20048;-76
2022/05/24 02:04:10;;;;;;;11.68;6.63;;;;;;;8.60;100.00;99421.31;5072327;28;20045;-73
2022/05/24 02:06:37;;;;;;;11.95;6.53;;;;;;;8.60;100.00;99424.00;5054870;28;20071;-76
2022/05/24 02:09:05;;;;;;;10.55;6.35;;;;;;;8.60;100.00;99429.38;5054814;28;20049;-76
2022/05/24 02:11:34;;;;;;;10.82;6.45;;;;;;;8.53;100.00;99418.06;5054518;28;20049;-74
2022/05/24 02:14:07;;;;;;;11.07;6.53;;;;;;;8.47;100.00;99417.53;5055099;28;20049;-74
2022/05/24 02:16:40;;;;;;;11.27;6.72;;;;;;;8.46;100.00;99416.66;5054856;28;20045;-75
2022/05/24 02:19:08;;;;;;;12.98;7.13;;;;;;;8.55;100.00;99420.69;5055616;28;20057;-73
2022/05/24 02:21:37;;;;;;;13.63;7.00;;;;;;;8.67;100.00;99422.72;5060101;28;20044;-74
2022/05/24 02:24:15;;;;;;;11.57;6.78;;;;;;;8.66;99.88;99422.81;5074488;28;20048;-76
2022/05/24 02:26:43;;;;;;;11.80;7.22;;;;;;;8.65;100.00;99426.47;5074750;28;20485;-73
2022/05/24 02:29:12;;;;;;;12.30;7.25;;;;;;;8.70;100.00;99416.31;5074486;28;20162;-75
2022/05/24 02:31:40;;;;;;;12.95;7.28;;;;;;;8.67;100.00;99424.56;5074074;28;20045;-75
2022/05/24 02:34:07;;;;;;;11.25;7.03;;;;;;;8.63;99.93;99422.97;5074339;28;20041;-74
2022/05/24 02:36:35;;;;;;;11.93;6.82;;;;;;;8.59;100.00;99424.97;5074397;28;20044;-74
2022/05/24 02:39:04;;;;;;;10.88;6.80;;;;;;;8.66;100.00;99420.97;5074106;28;20053;-73
2022/05/24 02:41:31;;;;;;;11.27;6.65;;;;;;;8.59;99.93;99422.28;5074303;28;20044;-74
2022/05/24 02:44:01;;;;;;;12.35;7.00;;;;;;;8.55;100.00;99426.94;5074310;28;20071;-76
2022/05/24 02:46:30;;;;;;;12.80;6.30;;;;;;;8.66;100.00;99418.28;5073657;28;20497;-73
2022/05/24 02:48:58;;;;;;;11.18;6.38;;;;;;;8.63;99.78;99422.97;5075566;28;20396;-73
2022/05/24 02:51:26;;;;;;;11.77;6.40;;;;;;;8.59;99.58;99424.97;5074131;28;20044;-75
2022/05/24 02:53:54;;;;;;;11.00;6.40;;;;;;;8.52;99.74;99431.63;5072616;28;20547;-74
2022/05/24 02:56:24;;;;;;;11.25;5.97;;;;;;;8.55;99.94;99436.84;5074857;28;20044;-73
2022/05/24 02:58:51;;;;;;;10.27;5.80;;;;;;;8.57;99.49;99429.56;5073811;28;20044;-74
2022/05/24 03:01:22;;;;;;;10.05;5.78;;;;;;;8.50;100.00;99425.47;5073464;28;20052;-76
2022/05/24 03:03:52;;;;;;;11.15;5.65;;;;;;;8.61;99.77;99420.38;5074748;28;20045;-74
2022/05/24 03:06:21;;;;;;;9.63;5.38;;;;;;;8.64;100.00;99419.34;5074885;28;20063;-73
2022/05/24 03:14:14;;;;;;;9.52;5.30;;;;;;;8.60;100.00;99421.31;5075156;28;20056;-75
2022/05/24 03:14:25;;;;;;;9.88;5.82;;;;;;;8.62;100.00;99422.09;5073313;28;20119;-74
2022/05/24 03:16:54;;;;;;;9.00;5.40;;;;;;;8.61;100.00;99424.91;5073522;28;20048;-74
2022/05/24 03:19:23;;;;;;;9.10;5.18;;;;;;;8.56;100.00;99422.44;5073596;28;20048;-73
2022/05/24 03:21:52;;;;;;;8.77;5.07;;;;;;;8.52;100.00;99426.25;5073340;28;20047;-76
2022/05/24 03:24:20;;;;;;;8.98;5.22;;;;;;;8.62;100.00;99432.00;5073140;28;20049;-73
2022/05/24 03:26:47;;;;;;;10.98;5.60;;;;;;;8.60;100.00;99426.69;5073493;28;20044;-74
2022/05/24 03:29:14;;;;;;;9.90;4.93;;;;;;;8.59;100.00;99430.34;5073233;28;20041;-74
2022/05/24 03:31:43;;;;;;;10.15;5.63;;;;;;;8.63;100.00;99431.91;5073550;28;20048;-74
2022/05/24 03:34:10;;;;;;;10.15;5.47;;;;;;;8.84;100.00;99435.25;5073454;28;20482;-75
2022/05/24 03:36:39;;;;;;;9.95;5.35;;;;;;;8.74;100.00;99427.75;5073332;28;20045;-74
2022/05/24 03:39:07;;;;;;;10.57;5.22;;;;;;;8.73;100.00;99429.59;5073177;28;20048;-74
2022/05/24 03:41:35;;;;;;;9.55;5.47;;;;;;;8.91;100.00;99433.09;5073352;28;20052;-73
2022/05/24 03:44:03;;;;;;;10.93;5.60;;;;;;;8.89;100.00;99429.59;5072903;28;20052;-73
2022/05/24 03:46:30;;;;;;;10.43;6.07;;;;;;;8.93;100.00;99428.47;5073233;28;20052;-74
2022/05/24 03:48:58;;;;;;;10.73;6.30;;;;;;;9.17;100.00;99417.25;5073320;28;20044;-73
2022/05/24 03:51:34;;;;;;;12.00;6.65;;;;;;;9.26;100.00;99426.63;5073224;28;20052;-74
2022/05/24 03:54:03;;;;;;;13.52;7.40;;;;;;;9.32;100.00;99425.44;5072286;28;20048;-70
2022/05/24 03:56:30;;;;;;;10.88;6.82;;;;;;;9.43;100.00;99420.28;5072986;28;20400;-73
2022/05/24 03:58:58;;;;;;;11.35;6.95;;;;;;;9.39;100.00;99427.69;5072548;28;20052;-74
2022/05/24 04:01:26;;;;;;;12.13;6.85;;;;;;;9.39;100.00;99429.50;5060723;28;20051;-73
2022/05/24 04:03:53;;;;;;;11.05;6.90;;;;;;;9.55;100.00;99421.38;5051266;28;20132;-75
2022/05/24 04:06:21;;;;;;;12.25;7.18;;;;;;;9.75;100.00;99416.63;5052979;28;20045;-77
2022/05/24 04:08:49;;;;;;;12.25;7.47;;;;;;;9.84;100.00;99425.03;5053032;28;20106;-76
2022/05/24 04:11:18;;;;;;;12.95;7.40;;;;;;;9.99;100.00;99416.97;5053043;28;20056;-75
2022/05/24 04:13:45;;;;;;;11.85;7.35;;;;;;;10.04;100.00;99420.28;5032531;28;20081;-75
2022/05/24 04:16:13;;;;;;;12.63;7.15;;;;;;;10.17;100.00;99416.81;5032282;28;20052;-76
2022/05/24 04:18:41;;;;;;;12.15;7.53;;;;;;;10.17;100.00;99412.28;5032976;28;20383;-76
2022/05/24 04:21:08;;;;;;;11.82;6.88;;;;;;;10.25;100.00;99419.91;5036421;28;20045;-76
2022/05/24 04:23:36;;;;;;;11.65;7.38;;;;;;;10.18;100.00;99418.56;5071410;28;20048;-75
2022/05/24 04:26:05;;;;;;;14.13;6.95;;;;;;;10.28;100.00;99426.00;5048370;28;20061;-75
2022/05/24 04:28:34;;;;;;;13.90;7.55;;;;;;;10.34;100.00;99416.63;5028534;28;20125;-75
2022/05/24 04:31:02;;;;;;;12.90;7.88;;;;;;;10.47;100.00;99419.47;5029165;28;20452;-75
2022/05/24 04:33:29;;;;;;;13.13;8.13;;;;;;;10.57;100.00;99422.47;5029347;28;20050;-74
2022/05/24 04:35:56;;;;;;;12.73;7.50;;;;;;;10.58;100.00;99424.22;5031207;28;20513;-77
2022/05/24 04:38:24;;;;;;;11.13;6.63;;;;;;;10.67;100.00;99420.91;5032888;28;20053;-75
2022/05/24 04:43:38;;;;;;;14.48;7.10;;;;;;;10.81;100.00;99413.75;5054515;28;20053;-75
2022/05/24 04:46:05;;;;;;;12.50;7.03;;;;;;;10.89;100.00;99419.56;5052647;28;20048;-75
2022/05/24 04:48:33;;;;;;;13.88;7.38;;;;;;;10.93;100.00;99414.81;5052989;28;20755;-75
2022/05/24 04:51:01;;;;;;;12.23;7.30;;;;;;;11.09;100.00;99414.69;5052850;28;20045;-76
2022/05/24 04:53:29;;;;;;;14.88;7.78;;;;;;;11.34;100.00;99423.91;5053334;28;20051;-75
2022/05/24 04:55:56;;;;;;;13.13;7.00;;;;;;;11.54;100.00;99414.44;5071132;28;20792;-76
2022/05/24 04:58:24;;;;;;;14.60;7.40;;;;;;;11.67;100.00;99422.63;5072497;28;20051;-75
2022/05/24 05:00:53;;;;;;;14.30;7.60;;;;;;;11.92;99.75;99413.69;5072655;28;20057;-74
2022/05/24 05:03:22;;;;;;;16.70;7.93;;;;;;;12.12;99.77;99420.47;5072602;28;20052;-75
2022/05/24 05:05:52;;;;;;;12.50;7.65;;;;;;;12.25;99.11;99419.59;5072768;28;20055;-77
2022/05/24 05:08:20;;;;;;;11.48;7.32;;;;;;;12.25;100.00;99419.59;5072464;28;20040;-73
2022/05/24 05:10:47;;;;;;;12.02;7.00;;;;;;;12.30;100.00;99410.19;5072118;28;20570;-77
2022/05/24 05:13:16;;;;;;;12.32;6.97;;;;;;;12.35;100.00;99409.00;5073592;28;20052;-76
2022/05/24 05:15:44;;;;;;;13.20;7.60;;;;;;;12.35;100.00;99409.84;5075848;28;20048;-76
2022/05/24 05:18:14;;;;;;;12.23;7.13;;;;;;;12.78;100.00;99413.16;5076118;28;20052;-77
2022/05/24 05:20:43;;;;;;;11.48;6.88;;;;;;;12.97;100.00;99416.28;5057018;28;20555;-75
2022/05/24 05:23:13;;;;;;;100.18;59.92;;;;;;;13.03;100.00;99410.41;5055042;28;20052;-76
2022/05/24 05:25:42;;;;;;;36.33;18.95;;;;;;;13.19;99.61;99411.97;5055043;28;20098;-76
2022/05/24 05:28:09;;;;;;;14.23;7.22;;;;;;;13.17;99.12;99414.81;5055020;28;20486;-74
2022/05/24 05:33:23;;;;;;;12.40;6.85;;;;;;;13.35;99.75;99436.09;5055737;28;20041;-74
2022/05/24 05:35:51;;;;;;;11.18;6.03;;;;;;;13.30;96.96;99427.44;5055394;28;20048;-76
2022/05/24 05:38:19;;;;;;;12.13;6.28;;;;;;;13.27;95.01;99436.69;5055518;28;20044;-76
2022/05/24 05:40:49;;;;;;;10.45;6.18;;;;;;;13.31;95.62;99429.19;5054997;28;20064;-76
2022/05/24 05:43:17;;;;;;;12.45;5.55;;;;;;;13.35;94.67;99436.09;5055304;28;20059;-77
2022/05/24 05:45:48;;;;;;;10.95;5.50;;;;;;;13.41;93.16;99427.50;5055020;28;20064;-76
2022/05/24 05:48:16;;;;;;;11.55;5.68;;;;;;;13.51;92.65;99429.59;5055128;28;20048;-76
2022/05/24 05:50:47;;;;;;;11.57;6.07;;;;;;;13.50;92.95;99430.56;5055340;28;20056;-74
2022/05/24 05:53:14;;;;;;;10.57;5.90;;;;;;;13.67;92.57;99427.44;5055942;28;20130;-75
2022/05/24 05:55:42;;;;;;;13.18;5.60;;;;;;;13.81;92.09;99433.63;5073320;28;20459;-77
2022/05/24 05:58:10;;;;;;;11.85;5.72;;;;;;;13.89;90.98;99423.94;5075189;28;20050;-74
2022/05/24 06:00:39;;;;;;;10.45;5.38;;;;;;;13.91;90.62;99424.69;5075173;28;20497;-77
2022/05/24 06:03:07;;;;;;;9.90;5.35;;;;;;;14.03;90.36;99419.28;5074904;28;20098;-76
2022/05/24 06:05:35;;;;;;;11.77;5.22;;;;;;;14.10;89.92;99423.28;5075050;28;20123;-76
2022/05/24 06:08:04;;;;;;;10.68;5.15;;;;;;;14.26;87.33;99422.91;5074461;28;20127;-76
2022/05/24 06:10:32;;;;;;;11.35;5.10;;;;;;;14.37;86.79;99424.78;5074769;28;20041;-76
2022/05/24 06:13:00;;;;;;;8.90;4.75;;;;;;;14.48;85.68;99430.25;5073205;28;20065;-76
2022/05/24 06:15:27;;;;;;;8.15;4.45;;;;;;;14.51;84.85;99434.56;5071227;28;20052;-77
2022/05/24 06:17:55;;;;;;;9.77;4.20;;;;;;;14.55;83.04;99436.06;5070846;28;20107;-77
2022/05/24 06:20:25;;;;;;;9.30;4.60;;;;;;;14.57;82.21;99444.94;5071280;28;20041;-76
2022/05/24 06:22:54;;;;;;;10.75;4.80;;;;;;;14.71;81.90;99443.88;5054407;28;20083;-77
2022/05/24 06:25:24;;;;;;;10.93;4.45;;;;;;;14.77;81.41;99442.53;5051168;28;20128;-74
2022/05/24 06:27:51;;;;;;;9.15;4.70;;;;;;;14.89;81.25;99444.25;5051077;28;20071;-77
2022/05/24 06:30:20;;;;;;;11.60;4.15;;;;;;;15.03;78.00;99432.25;5050790;28;20080;-75
2022/05/24 06:32:48;;;;;;;8.82;3.92;;;;;;;15.04;76.40;99436.72;5050929;28;20053;-75
2022/05/24 06:35:15;;;;;;;8.93;4.13;;;;;;;15.15;76.92;99440.41;5051156;28;20045;-76
2022/05/24 06:37:43;;;;;;;8.15;4.18;;;;;;;15.24;76.33;99441.50;5050605;28;20387;-76
2022/05/24 06:40:12;;;;;;;10.80;3.80;;;;;;;15.34;74.49;99437.03;5049707;28;20122;-76
2022/05/24 06:42:41;;;;;;;9.02;3.75;;;;;;;15.43;73.05;99446.28;5050386;28;20055;-75
2022/05/24 06:45:09;;;;;;;7.75;3.50;;;;;;;15.45;73.51;99444.31;5050569;28;20071;-77
2022/05/24 06:47:38;;;;;;;8.38;3.33;;;;;;;15.62;70.71;99441.03;5050332;28;20102;-77
2022/05/24 06:50:07;;;;;;;6.50;3.35;;;;;;;15.58;67.84;99439.56;5052373;28;20057;-78
2022/05/24 06:52:35;;;;;;;6.55;3.47;;;;;;;15.67;68.30;99447.94;5050205;28;20051;-77
2022/05/24 06:55:02;;;;;;;7.18;3.40;;;;;;;15.70;68.05;99443.13;5062615;28;20055;-77
2022/05/24 06:57:30;;;;;;;9.32;3.40;;;;;;;15.85;63.61;99440.94;5058113;28;20490;-78
2022/05/24 07:02:44;;;;;;;9.82;3.42;;;;;;;15.93;61.17;99438.47;5048056;28;20422;-78
2022/05/24 07:05:13;;;;;;;10.85;3.13;;;;;;;16.00;62.33;99435.22;5049655;28;20565;-76
2022/05/24 07:07:41;;;;;;;7.13;3.20;;;;;;;16.09;61.77;99445.31;5049023;28;20037;-75
2022/05/24 07:10:12;;;;;;;6.07;3.10;;;;;;;16.07;61.27;99444.59;5050315;28;20045;-77
2022/05/24 07:12:40;;;;;;;8.57;3.50;;;;;;;16.22;59.20;99448.72;5050394;28;20081;-75
2022/05/24 07:15:10;;;;;;;10.35;3.50;;;;;;;16.26;57.20;99448.47;5050019;28;20044;-76
2022/05/24 07:17:37;;;;;;;5.05;3.00;;;;;;;16.41;58.50;99443.53;5053829;28;20375;-75
2022/05/24 07:20:07;;;;;;;5.75;2.92;;;;;;;16.46;56.43;99444.84;5053338;28;20102;-75
2022/05/24 07:22:35;;;;;;;6.55;2.90;;;;;;;16.43;54.27;99439.66;5048807;28;20303;-75
2022/05/24 07:25:03;;;;;;;6.35;2.95;;;;;;;16.47;53.94;99432.94;5049523;28;20057;-75
2022/05/24 07:27:30;;;;;;;9.35;3.03;;;;;;;16.55;54.61;99443.19;5048981;28;20037;-75
2022/05/24 07:29:58;;;;;;;7.85;2.90;;;;;;;16.58;54.38;99436.63;5049147;28;20052;-75
2022/05/24 07:32:27;;;;;;;6.65;3.03;;;;;;;16.65;52.14;99429.63;5052530;28;20103;-74
2022/05/24 07:34:56;;;;;;;6.20;2.90;;;;;;;16.67;51.67;99419.44;5049291;28;20056;-77
2022/05/24 07:37:23;;;;;;;5.53;2.90;;;;;;;16.76;52.21;99415.88;5051933;28;20045;-76
2022/05/24 07:45:47;;;;;;;5.70;2.88;;;;;;;16.75;49.85;99416.88;5053177;28;20128;-78
2022/05/24 07:48:10;;;;;;;5.32;2.92;;;;;;;17.01;51.88;99424.63;5052071;28;20041;-75
2022/05/24 07:50:39;;;;;;;7.93;2.90;;;;;;;17.13;51.51;99419.91;5052235;28;20052;-75
2022/05/24 07:53:08;;;;;;;7.00;3.00;;;;;;;17.14;49.15;99420.78;5052794;28;20045;-76
2022/05/24 07:55:35;;;;;;;7.20;2.60;;;;;;;17.11;48.66;99415.63;5070399;28;20048;-76
2022/05/24 07:58:03;;;;;;;5.47;2.80;;;;;;;17.12;49.52;99412.72;5072928;28;20504;-74
2022/05/24 08:00:31;;;;;;;6.07;2.97;;;;;;;17.25;50.58;99417.94;5072896;28;20052;-74
2022/05/24 08:02:58;;;;;;;5.60;2.80;;;;;;;17.39;48.91;99411.22;5073117;28;20068;-74
2022/05/24 08:05:28;;;;;;;6.90;2.97;;;;;;;17.38;48.06;99413.09;5072649;28;20060;-73
2022/05/24 08:07:57;;;;;;;5.00;2.78;;;;;;;17.41;48.38;99417.41;5073032;28;20044;-74
2022/05/24 08:10:24;;;;;;;5.72;2.90;;;;;;;17.50;46.96;99415.69;5076128;28;20049;-73
2022/05/24 08:12:52;;;;;;;6.00;3.03;;;;;;;17.55;47.29;99413.41;5077048;28;20480;-72
2022/05/24 08:15:19;;;;;;;5.28;2.67;;;;;;;17.56;48.07;99412.41;5077003;28;20044;-73
2022/05/24 08:17:47;;;;;;;6.75;2.80;;;;;;;17.56;46.48;99406.94;5077062;28;20044;-72
2022/05/24 08:20:15;;;;;;;5.50;2.95;;;;;;;17.61;47.53;99406.53;5065245;28;20067;-73
2022/05/24 08:22:44;;;;;;;5.13;2.72;;;;;;;17.75;47.03;99397.03;5066392;28;20079;-74
2022/05/24 08:25:12;;;;;;;6.85;2.90;;;;;;;17.83;46.49;99399.91;5053225;28;20115;-75
2022/05/24 08:27:40;;;;;;;5.13;2.60;;;;;;;17.84;46.66;99401.63;5055262;28;20041;-73
2022/05/24 08:30:10;;;;;;;6.15;2.67;;;;;;;17.92;47.92;99404.50;5055398;28;20037;-75
2022/05/24 08:32:37;;;;;;;4.80;2.65;;;;;;;17.94;47.04;99396.16;5054804;28;20044;-74
2022/05/24 08:35:06;;;;;;;6.75;2.60;;;;;;;17.96;45.63;99399.63;5052586;28;20041;-78
2022/05/24 08:37:34;;;;;;;7.78;2.92;;;;;;;18.00;44.00;99397.44;5057154;28;20045;-76
2022/05/24 08:40:03;;;;;;;5.88;2.60;;;;;;;18.02;45.95;99398.19;5056664;28;20053;-79
2022/05/24 08:42:42;;;;;;;4.95;2.60;;;;;;;18.08;46.80;99393.03;5056379;28;20071;-82
2022/05/24 08:48:26;;;;;;;8.52;3.00;;;;;;;18.20;45.57;99391.00;5052849;28;20044;-82
2022/05/24 08:50:59;;;;;;;5.10;2.78;;;;;;;18.21;45.72;99397.31;5048821;28;20483;-76
2022/05/24 08:53:30;;;;;;;5.30;2.45;;;;;;;18.24;45.75;99384.22;5037811;28;20046;-75
2022/05/24 08:56:02;;;;;;;5.88;2.70;;;;;;;18.26;45.66;99384.06;5074022;28;20561;-75
2022/05/24 08:58:33;;;;;;;8.32;2.80;;;;;;;18.22;45.73;99391.72;5076526;28;20044;-75
2022/05/24 09:01:02;;;;;;;7.63;2.58;;;;;;;17.99;44.84;99388.41;5076646;28;20048;-74
2022/05/24 09:03:30;;;;;;;8.50;3.00;;;;;;;18.01;45.17;99393.75;5051439;28;20055;-75
2022/05/24 09:06:01;;;;;;;7.00;2.65;;;;;;;18.12;46.62;99384.53;5052297;28;20056;-76
2022/05/24 09:08:30;;;;;;;5.97;2.67;;;;;;;18.15;46.60;99392.44;5053235;28;20051;-72
2022/05/24 09:11:07;;;;;;;5.95;2.80;;;;;;;18.18;46.02;99379.34;5052359;28;20052;-73
2022/05/24 09:14:05;;;;;;;4.60;2.60;;;;;;;18.26;46.50;99383.22;5051461;28;20056;-72
2022/05/24 09:16:38;;;;;;;6.85;2.60;;;;;;;18.46;46.87;99384.88;5052176;28;20045;-74
2022/05/24 09:19:12;;;;;;;5.70;2.67;;;;;;;18.68;44.99;99386.38;5053983;28;20041;-72
2022/05/24 09:21:42;;;;;;;4.95;2.53;;;;;;;18.59;44.58;99389.16;5055160;28;20801;-74
2022/05/24 09:24:18;;;;;;;11.07;2.80;;;;;;;18.62;45.33;99391.59;5054375;28;20071;-78
2022/05/24 09:27:07;;;;;;;5.30;2.60;;;;;;;18.39;42.29;99389.22;5054519;28;20049;-76
2022/05/24 09:29:35;;;;;;;5.38;2.50;;;;;;;18.46;43.55;99384.88;5055871;28;20394;-76
2022/05/24 09:32:08;;;;;;;4.88;2.40;;;;;;;18.52;42.53;99394.34;5053746;28;20045;-74
2022/05/24 09:34:38;;;;;;;6.72;2.70;;;;;;;18.49;43.71;99389.19;5051991;28;20044;-75
2022/05/24 09:37:09;;;;;;;9.43;2.85;;;;;;;18.33;44.09;99390.66;5053969;28;20041;-81
2022/05/24 09:39:38;;;;;;;5.50;2.70;;;;;;;18.34;43.92;99397.84;5053374;28;20139;-78
2022/05/24 09:42:12;;;;;;;7.53;2.65;;;;;;;18.42;43.80;99388.91;5054069;28;20072;-76
2022/05/24 09:44:49;;;;;;;6.05;2.55;;;;;;;18.65;43.73;99396.75;5052421;28;20052;-75
2022/05/24 09:47:29;;;;;;;6.90;2.78;;;;;;;18.66;43.33;99393.00;5051806;28;20508;-79
2022/05/24 09:50:20;;;;;;;7.05;2.75;;;;;;;18.62;42.05;99400.66;5052258;28;20103;-80
2022/05/24 09:53:08;;;;;;;5.60;2.63;;;;;;;18.52;43.93;99394.34;5053005;28;20529;-79
2022/05/24 09:55:40;;;;;;;5.60;2.70;;;;;;;18.56;42.81;99398.50;5058690;28;20048;-77
2022/05/24 09:58:25;;;;;;;6.53;2.60;;;;;;;18.61;43.14;99401.66;5054051;28;20068;-79
2022/05/24 10:00:56;;;;;;;5.57;2.47;;;;;;;18.69;45.86;99395.44;5054410;28;20441;-77
2022/05/24 10:03:27;;;;;;;6.53;2.90;;;;;;;18.89;43.61;99379.81;5053654;28;20041;-76
2022/05/24 10:05:57;;;;;;;5.13;2.47;;;;;;;19.07;43.00;99387.22;5053906;28;20041;-78
2022/05/24 10:08:25;;;;;;;7.03;3.00;;;;;;;18.95;43.77;99392.00;5054709;28;20041;-78
2022/05/24 10:10:57;;;;;;;6.57;2.70;;;;;;;18.64;44.65;99386.84;5053488;28;20048;-78
2022/05/24 10:13:36;;;;;;;6.15;2.92;;;;;;;18.71;44.95;99392.53;5053522;28;20060;-77
2022/05/24 10:16:08;;;;;;;5.38;2.75;;;;;;;18.60;44.51;99385.41;5052356;28;20041;-75
2022/05/24 10:18:47;;;;;;;6.55;3.05;;;;;;;18.74;44.23;99381.31;5054786;28;20045;-71
2022/05/24 10:21:18;;;;;;;11.25;2.90;;;;;;;18.73;43.80;99379.59;5057000;28;20041;-71
2022/05/24 10:23:52;;;;;;;5.80;2.80;;;;;;;18.95;43.39;99375.59;5075225;28;20045;-72
2022/05/24 10:26:30;;;;;;;6.60;2.60;;;;;;;18.99;42.96;99374.31;5061052;28;20041;-72
2022/05/24 10:29:03;;;;;;;5.43;2.70;;;;;;;18.92;42.75;99373.16;5052098;28;20049;-71
2022/05/24 10:31:38;;;;;;;8.07;2.70;;;;;;;18.80;43.03;99372.53;5052969;28;20041;-71
2022/05/24 10:40:01;;;;;;;5.70;2.55;;;;;;;18.94;43.64;99365.66;5011577;28;20058;-75
2022/05/24 10:42:47;;;;;;;6.43;2.90;;;;;;;19.25;43.26;99368.97;5012600;28;20053;-74
2022/05/24 10:45:18;;;;;;;6.53;2.70;;;;;;;19.07;42.81;99362.59;5008999;28;20060;-76
2022/05/24 10:47:49;;;;;;;5.18;2.75;;;;;;;19.26;43.11;99364.34;5012789;28;20056;-76
2022/05/24 10:50:20;;;;;;;6.28;2.70;;;;;;;19.46;43.12;99359.59;5010738;28;20064;-76
2022/05/24 10:52:52;;;;;;;7.65;2.60;;;;;;;19.34;43.42;99363.59;5011656;28;20049;-74
2022/05/24 10:55:21;;;;;;;6.22;2.78;;;;;;;19.39;43.00;99364.84;5011585;28;20100;-77
2022/05/24 10:57:55;;;;;;;5.65;2.80;;;;;;;19.31;42.01;99359.25;5000727;28;20134;-72
2022/05/24 11:00:28;;;;;;;5.80;2.50;;;;;;;19.44;41.71;99360.78;5013222;28;20577;-72
2022/05/24 11:03:06;;;;;;;10.07;2.60;;;;;;;19.50;41.57;99365.63;5011612;28;20529;-72
2022/05/24 11:05:37;;;;;;;7.47;2.58;;;;;;;19.56;43.41;99365.00;5011314;28;20519;-72
2022/05/24 11:08:23;;;;;;;6.05;2.80;;;;;;;19.54;41.96;99356.09;5010975;28;20050;-72
2022/05/24 11:10:51;;;;;;;8.10;2.72;;;;;;;19.54;42.45;99372.53;5013820;28;20045;-71
2022/05/24 11:13:22;;;;;;;7.70;2.53;;;;;;;19.42;42.26;99371.03;4999056;28;20058;-71
2022/05/24 11:15:54;;;;;;;9.32;2.83;;;;;;;19.59;42.29;99366.59;5033121;28;20057;-70
2022/05/24 11:18:24;;;;;;;5.85;2.80;;;;;;;19.52;42.10;99364.44;5055015;28;20071;-70
2022/05/24 11:20:55;;;;;;;5.90;2.90;;;;;;;19.52;43.17;99380.03;5053583;28;20041;-71
2022/05/24 11:23:25;;;;;;;6.30;2.50;;;;;;;19.21;40.78;99364.84;5052042;28;20497;-73
2022/05/24 11:26:12;;;;;;;5.70;2.60;;;;;;;19.16;42.49;99366.28;5053114;28;20398;-73
2022/05/24 11:28:45;;;;;;;6.65;2.72;;;;;;;18.87;42.76;99364.53;5051707;28;20049;-72
2022/05/24 11:31:28;;;;;;;6.25;2.90;;;;;;;18.99;43.47;99362.50;5053745;28;20111;-73
2022/05/24 11:33:57;;;;;;;5.82;2.80;;;;;;;18.79;43.62;99352.50;5053952;28;20045;-73
2022/05/24 11:36:38;;;;;;;5.72;2.67;;;;;;;19.08;43.35;99356.97;5053407;28;20106;-72
2022/05/24 11:39:10;;;;;;;7.18;2.80;;;;;;;19.06;43.36;99356.28;5054417;28;20056;-73
2022/05/24 11:41:38;;;;;;;12.60;3.03;;;;;;;19.09;43.92;99353.22;5054336;28;20049;-74
2022/05/24 11:44:29;;;;;;;5.60;2.65;;;;;;;19.03;43.72;99356.59;5052802;28;20053;-73
2022/05/24 11:46:58;;;;;;;6.75;2.85;;;;;;;18.98;43.80;99347.09;5054542;28;20151;-72
2022/05/24 11:50:04;;;;;;;5.97;2.63;;;;;;;19.18;43.74;99356.94;5053390;28;20398;-72
2022/05/24 11:52:45;;;;;;;5.13;2.58;;;;;;;19.38;44.97;99346.72;5039395;28;20411;-74
2022/05/24 11:55:41;;;;;;;5.60;2.83;;;;;;;19.28;43.97;99351.38;5063368;28;20507;-72
2022/05/24 11:58:39;;;;;;;5.22;2.75;;;;;;;19.37;44.34;99339.47;5071904;28;20409;-74
2022/05/24 12:01:09;;;;;;;5.93;2.72;;;;;;;19.53;41.54;99343.41;5069111;28;20037;-72
2022/05/24 12:09:15;;;;;;;5.63;2.50;;;;;;;19.72;42.80;99331.44;5070044;28;20055;-70
2022/05/24 12:11:43;;;;;;;4.78;2.70;;;;;;;19.87;41.60;99339.94;5068908;28;20048;-71
2022/05/24 12:14:15;;;;;;;6.25;2.70;;;;;;;19.66;41.69;99321.94;5071435;28;20044;-70
2022/05/24 12:16:48;;;;;;;6.28;2.60;;;;;;;19.98;41.65;99331.50;5053617;28;20111;-70
2022/05/24 12:19:48;;;;;;;5.47;2.60;;;;;;;19.60;40.70;99328.06;5046111;28;20037;-69